Terminal Aerodrome Forecast
Issued by NWS Caribou, ME

Home | Current Version | Previous Version | Text Only | Print | Product List | Glossary On
Versions: 1 2 3 4 5 6 7 8 9 10 11 12 13 14 15 16 17 18 19 20 21
647
FTUS41 KCAR 060531
TAFCAR
TAF
KCAR 060531Z 0606/0706 04010KT P6SM BKN020
     FM061000 02008KT P6SM BKN035
     FM061600 01006KT P6SM SCT040=

USA.gov is the U.S. government's official web portal to all federal, state and local government web resources and services.